Time;durP1;ratioP1;P1;durP2;ratioP2;P2;SDS_P1;SDS_P2;PMS_P1;PMS_P2;Temp;Humidity;BMP_temperature;BMP_pressure;BME280_temperature;BME280_humidity;BME280_pressure;Samples;Min_cycle;Max_cycle;Signal;HPM_P1;HPM_P2
2023/09/04 00:02:08;;;;;;;;;13.40;13.40;;;;;13.34;85.49;99748.66;5124766;27;9015;-76
2023/09/04 00:04:38;;;;;;;;;15.80;14.80;;;;;13.26;86.24;99748.84;5111934;28;8841;-77
2023/09/04 00:07:07;;;;;;;;;15.20;14.00;;;;;13.12;87.29;99743.97;5111873;28;8891;-77
2023/09/04 00:09:38;;;;;;;;;15.40;14.00;;;;;13.03;87.71;99741.59;5075878;28;8872;-76
2023/09/04 00:12:07;;;;;;;;;12.60;12.60;;;;;13.02;87.65;99747.81;5111419;28;8893;-75
2023/09/04 00:14:36;;;;;;;;;11.60;11.00;;;;;13.00;86.62;99742.56;5109264;28;8821;-76
2023/09/04 00:17:05;;;;;;;;;12.40;12.20;;;;;12.97;86.09;99747.06;5106959;28;8873;-77
2023/09/04 00:19:34;;;;;;;;;10.80;10.00;;;;;13.13;82.43;99732.53;5091313;28;9618;-78
2023/09/04 00:22:03;;;;;;;;;8.40;8.40;;;;;13.21;79.99;99732.31;5091060;28;9640;-75
2023/09/04 00:24:32;;;;;;;;;7.40;7.00;;;;;13.32;77.33;99727.59;5106660;28;8986;-77
2023/09/04 00:27:02;;;;;;;;;7.80;7.80;;;;;13.42;76.57;99733.44;5090593;28;8962;-77
2023/09/04 00:29:31;;;;;;;;;7.80;7.00;;;;;13.90;75.07;99735.50;5090715;28;8844;-76
2023/09/04 00:32:02;;;;;;;;;8.60;7.60;;;;;13.82;75.31;99732.25;5109527;27;8848;-76
2023/09/04 00:34:31;;;;;;;;;8.00;8.00;;;;;13.96;75.08;99737.09;5089645;28;8951;-77
2023/09/04 00:37:00;;;;;;;;;4.40;4.40;;;;;13.70;75.70;99734.34;5088298;28;8859;-76
2023/09/04 00:39:29;;;;;;;;;9.00;7.60;;;;;13.54;77.45;99737.50;5089449;28;8852;-76
2023/09/04 00:41:58;;;;;;;;;7.60;7.60;;;;;13.62;77.19;99732.84;5093723;28;8982;-75
2023/09/04 00:44:28;;;;;;;;;7.40;7.40;;;;;13.48;78.12;99736.75;5096765;28;8858;-75
2023/09/04 00:46:58;;;;;;;;;7.00;7.00;;;;;13.44;78.28;99734.25;5089007;28;8846;-75
2023/09/04 00:49:28;;;;;;;;;7.00;7.00;;;;;13.34;79.06;99731.03;5088516;28;8849;-78
2023/09/04 00:51:57;;;;;;;;;9.20;8.00;;;;;13.54;77.97;99734.84;5088011;28;8861;-75
2023/09/04 00:54:28;;;;;;;;;7.60;7.40;;;;;13.84;76.44;99730.44;5087980;28;8862;-76
2023/09/04 00:56:56;;;;;;;;;8.40;8.40;;;;;13.83;76.65;99737.50;5087398;28;8842;-76
2023/09/04 00:59:26;;;;;;;;;6.80;6.60;;;;;13.73;76.56;99732.50;5087597;28;8826;-78
2023/09/04 01:01:58;;;;;;;;;6.00;5.00;;;;;13.50;78.04;99739.34;5070658;28;8874;-76
2023/09/04 01:04:27;;;;;;;;;6.80;6.80;;;;;13.55;77.47;99744.53;5086688;28;8877;-77
2023/09/04 01:06:55;;;;;;;;;6.20;6.20;;;;;13.61;76.96;99749.59;5054236;28;8880;-76
2023/09/04 01:09:26;;;;;;;;;5.60;5.60;;;;;13.86;76.05;99742.66;5087220;28;8842;-78
2023/09/04 01:12:00;;;;;;;;;7.60;6.00;;;;;13.89;74.94;99739.94;5087462;28;9048;-75
2023/09/04 01:14:30;;;;;;;;;6.80;6.80;;;;;13.89;73.78;99736.44;5047213;28;8869;-76
2023/09/04 01:17:01;;;;;;;;;6.60;6.00;;;;;14.05;72.78;99739.44;5047309;28;8862;-73
2023/09/04 01:19:31;;;;;;;;;5.60;5.60;;;;;14.21;71.05;99747.75;5045668;28;8922;-73
2023/09/04 01:22:01;;;;;;;;;4.60;4.20;;;;;14.41;70.24;99745.31;5041371;28;8832;-73
2023/09/04 01:24:30;;;;;;;;;6.00;4.60;;;;;14.28;69.83;99742.22;5049975;28;8856;-72
2023/09/04 01:27:06;;;;;;;;;5.20;5.20;;;;;14.36;68.91;99752.53;5026449;28;8894;-74
2023/09/04 01:29:40;;;;;;;;;5.00;5.00;;;;;14.41;68.74;99750.63;5046621;28;8865;-73
2023/09/04 01:32:14;;;;;;;;;2.80;2.00;;;;;14.52;68.18;99746.72;5046726;28;8877;-75
2023/09/04 01:34:48;;;;;;;;;5.40;5.00;;;;;14.62;67.55;99746.38;5047188;28;8874;-73
2023/09/04 01:37:19;;;;;;;;;4.20;4.20;;;;;14.81;67.19;99743.97;5046733;28;8927;-73
2023/09/04 01:39:50;;;;;;;;;4.80;4.80;;;;;14.86;65.97;99747.31;5015975;28;8854;-75
2023/09/04 01:42:19;;;;;;;;;5.40;5.40;;;;;14.74;66.16;99749.53;5013337;28;8854;-73
2023/09/04 01:44:47;;;;;;;;;7.00;6.00;;;;;14.59;66.72;99746.47;5034542;28;8870;-75
2023/09/04 01:47:16;;;;;;;;;5.00;4.80;;;;;14.64;66.28;99752.47;5069808;28;8830;-72
2023/09/04 01:49:45;;;;;;;;;5.20;4.80;;;;;14.69;65.79;99754.94;5069556;28;8845;-73
2023/09/04 01:52:14;;;;;;;;;4.60;4.60;;;;;14.45;66.80;99756.63;5068188;28;8976;-73
2023/09/04 01:54:44;;;;;;;;;6.60;6.00;;;;;14.30;68.13;99763.34;5082942;28;8878;-73
2023/09/04 01:57:13;;;;;;;;;4.20;4.20;;;;;14.15;69.45;99759.41;5066893;28;8850;-71
2023/09/04 01:59:42;;;;;;;;;5.40;4.20;;;;;14.15;69.54;99756.75;5085323;28;8944;-75
2023/09/04 02:02:10;;;;;;;;;6.80;6.80;;;;;13.92;70.56;99756.63;5035719;28;8850;-76
2023/09/04 02:04:39;;;;;;;;;5.00;5.00;;;;;13.70;71.25;99760.75;5097328;28;8841;-75
2023/09/04 02:07:08;;;;;;;;;5.20;4.80;;;;;13.42;72.85;99758.06;5107644;28;8853;-74
2023/09/04 02:09:37;;;;;;;;;4.60;4.60;;;;;13.21;73.76;99745.50;5104278;28;8835;-73
2023/09/04 02:12:07;;;;;;;;;5.00;5.00;;;;;13.20;74.08;99756.97;5124784;27;8929;-74
2023/09/04 02:14:36;;;;;;;;;4.80;4.40;;;;;13.24;73.29;99748.94;5107470;28;8968;-73
2023/09/04 02:17:05;;;;;;;;;6.60;6.60;;;;;13.39;72.03;99741.44;5054795;28;8873;-74
2023/09/04 02:19:36;;;;;;;;;7.40;7.00;;;;;13.37;72.19;99741.50;5086945;28;8852;-73
2023/09/04 02:22:05;;;;;;;;;6.60;5.60;;;;;13.50;71.06;99744.63;5087366;28;8847;-72
2023/09/04 02:24:34;;;;;;;;;7.00;6.20;;;;;13.47;71.13;99744.75;5069557;28;8851;-73
2023/09/04 02:27:03;;;;;;;;;6.00;6.00;;;;;13.39;71.14;99737.06;5063821;28;9608;-74
2023/09/04 02:29:33;;;;;;;;;7.40;7.00;;;;;13.62;70.26;99736.34;5096560;28;8921;-72
2023/09/04 02:32:01;;;;;;;;;7.00;6.40;;;;;13.67;69.81;99728.28;5109973;28;8845;-72
2023/09/04 02:34:30;;;;;;;;;8.60;7.80;;;;;13.82;69.23;99724.34;5107394;28;8995;-75
2023/09/04 02:37:00;;;;;;;;;7.20;7.20;;;;;13.71;69.09;99724.63;5089864;28;8833;-74
2023/09/04 02:39:29;;;;;;;;;9.20;8.40;;;;;13.76;69.08;99735.94;5142117;27;8837;-72
2023/09/04 02:41:57;;;;;;;;;10.60;9.00;;;;;13.43;70.91;99727.25;5107625;28;8856;-75
2023/09/04 02:44:26;;;;;;;;;7.80;6.60;;;;;13.41;71.61;99736.97;5104847;28;8822;-75
2023/09/04 02:46:56;;;;;;;;;8.60;7.00;;;;;12.93;73.40;99733.06;5124502;28;8975;-73
2023/09/04 02:49:25;;;;;;;;;9.00;9.00;;;;;13.03;73.24;99734.53;5095374;28;8844;-73
2023/09/04 02:51:54;;;;;;;;;7.80;7.00;;;;;12.90;74.07;99734.03;5104205;28;8867;-73
2023/09/04 02:54:23;;;;;;;;;9.60;8.20;;;;;12.63;75.56;99742.66;5069456;28;9670;-72
2023/09/04 02:56:52;;;;;;;;;8.60;8.00;;;;;12.85;74.71;99745.63;5087986;28;8843;-74
2023/09/04 02:59:21;;;;;;;;;8.00;8.00;;;;;12.62;75.78;99733.03;5086607;27;8993;-74
2023/09/04 03:01:50;;;;;;;;;8.40;7.40;;;;;12.49;76.37;99732.47;5090155;28;8909;-74
2023/09/04 03:04:20;;;;;;;;;8.40;8.40;;;;;12.63;75.63;99732.97;5088246;28;8896;-73
2023/09/04 03:06:49;;;;;;;;;8.40;8.00;;;;;12.72;75.28;99740.63;5087198;28;8909;-73
2023/09/04 03:09:18;;;;;;;;;9.40;9.00;;;;;12.80;74.79;99732.50;5088144;28;8860;-74
2023/09/04 03:11:46;;;;;;;;;6.80;6.80;;;;;12.71;74.90;99727.47;5089630;28;8855;-74
2023/09/04 03:14:15;;;;;;;;;9.20;8.00;;;;;12.95;74.41;99715.44;5056657;28;8860;-75
2023/09/04 03:16:45;;;;;;;;;8.60;8.60;;;;;12.86;74.50;99724.47;5110698;27;9613;-74
2023/09/04 03:19:14;;;;;;;;;8.20;7.60;;;;;12.98;73.96;99714.50;5092789;28;8848;-73
2023/09/04 03:21:45;;;;;;;;;7.40;5.80;;;;;13.17;72.82;99714.84;5072865;28;8859;-73
2023/09/04 03:24:15;;;;;;;;;8.60;7.80;;;;;12.93;73.66;99726.03;5091804;28;8871;-73
2023/09/04 03:26:43;;;;;;;;;11.40;10.00;;;;;12.71;74.49;99727.47;5055584;28;8852;-74
2023/09/04 03:29:14;;;;;;;;;8.60;8.60;;;;;13.20;72.26;99720.84;5090400;28;8835;-74
2023/09/04 03:31:44;;;;;;;;;11.80;10.00;;;;;13.15;72.48;99724.53;5089804;28;8860;-73
2023/09/04 03:34:14;;;;;;;;;10.00;8.60;;;;;12.90;73.13;99719.97;5100139;28;8950;-74
2023/09/04 03:36:44;;;;;;;;;11.40;10.00;;;;;12.72;74.30;99722.16;5090099;28;8860;-74
2023/09/04 03:39:14;;;;;;;;;12.40;11.20;;;;;12.78;74.08;99713.22;5091795;28;8847;-75
2023/09/04 03:41:43;;;;;;;;;8.40;7.60;;;;;12.61;74.61;99705.75;5073221;28;8852;-73
2023/09/04 03:44:12;;;;;;;;;10.60;9.80;;;;;12.69;74.13;99709.09;5107137;28;8844;-74
2023/09/04 03:46:40;;;;;;;;;11.20;11.20;;;;;12.58;75.45;99707.63;5091696;28;8960;-75
2023/09/04 03:49:09;;;;;;;;;11.20;11.20;;;;;12.49;75.64;99711.38;5094366;28;8886;-73
2023/09/04 03:51:38;;;;;;;;;11.80;11.80;;;;;12.45;75.60;99713.22;5073567;28;8855;-74
2023/09/04 03:54:10;;;;;;;;;9.20;8.60;;;;;12.59;74.93;99710.22;5089663;28;8851;-75
2023/09/04 03:56:38;;;;;;;;;14.20;14.20;;;;;12.29;76.90;99719.78;5090195;28;8994;-75
2023/09/04 03:59:07;;;;;;;;;12.20;11.40;;;;;12.36;76.46;99724.00;5091285;28;8867;-76
2023/09/04 04:01:36;;;;;;;;;14.00;13.00;;;;;12.29;76.38;99728.56;5089797;28;9631;-73
2023/09/04 04:04:07;;;;;;;;;15.20;14.60;;;;;12.53;74.81;99723.56;5089756;28;8851;-74
2023/09/04 04:06:35;;;;;;;;;15.20;14.00;;;;;12.76;74.07;99735.28;5106552;27;8859;-73
2023/09/04 04:09:06;;;;;;;;;12.80;12.80;;;;;12.80;73.41;99724.59;5074782;28;8875;-74
2023/09/04 04:11:37;;;;;;;;;12.40;12.00;;;;;12.75;73.81;99737.06;5089066;28;8849;-77
2023/09/04 04:14:07;;;;;;;;;12.20;11.40;;;;;12.62;73.98;99733.03;5071483;28;8861;-76
2023/09/04 04:16:36;;;;;;;;;16.00;13.20;;;;;12.48;74.95;99734.22;5071339;28;8857;-75
2023/09/04 04:19:06;;;;;;;;;13.40;12.80;;;;;12.42;75.29;99737.03;5071238;28;8990;-74
2023/09/04 04:21:35;;;;;;;;;15.80;15.40;;;;;12.63;74.47;99750.56;5087766;28;8822;-75
2023/09/04 04:24:04;;;;;;;;;14.60;14.00;;;;;12.73;73.46;99745.00;5087494;28;8935;-74
2023/09/04 04:26:33;;;;;;;;;14.60;13.60;;;;;12.53;74.55;99752.56;5036511;28;8987;-76
2023/09/04 04:29:03;;;;;;;;;13.80;13.80;;;;;12.69;73.57;99750.41;5087643;28;8845;-73
2023/09/04 04:31:32;;;;;;;;;11.40;11.40;;;;;12.53;74.01;99753.44;5071386;28;8953;-74
2023/09/04 04:34:01;;;;;;;;;9.40;9.00;;;;;12.31;75.61;99745.19;5050633;28;8844;-74
2023/09/04 04:36:30;;;;;;;;;14.20;13.40;;;;;12.29;75.80;99747.00;5018162;28;8844;-75
2023/09/04 04:38:59;;;;;;;;;14.40;13.40;;;;;12.28;75.80;99741.78;5068492;28;8928;-75
2023/09/04 04:41:28;;;;;;;;;13.00;13.00;;;;;12.36;75.54;99747.72;5070365;28;8867;-76
2023/09/04 04:43:57;;;;;;;;;53.25;43.75;;;;;12.40;75.38;99749.38;5067025;28;8859;-73
2023/09/04 04:46:27;;;;;;;;;14.80;14.00;;;;;12.58;74.81;99757.72;5061915;28;8948;-76
2023/09/04 04:48:56;;;;;;;;;16.40;14.20;;;;;12.27;75.92;99755.88;5088697;28;8832;-75
2023/09/04 04:51:24;;;;;;;;;16.60;16.60;;;;;12.31;75.74;99750.47;5090280;28;9432;-75
2023/09/04 04:53:53;;;;;;;;;11.00;11.00;;;;;12.10;76.83;99754.50;5088658;28;8881;-77
2023/09/04 04:56:24;;;;;;;;;16.40;15.80;;;;;12.09;76.55;99757.19;5038901;28;8951;-75
2023/09/04 04:58:53;;;;;;;;;17.20;13.60;;;;;12.03;76.88;99755.56;5071291;28;9612;-76
2023/09/04 05:01:21;;;;;;;;;16.00;15.60;;;;;12.38;75.57;99755.59;5113758;27;8830;-75
2023/09/04 05:03:52;;;;;;;;;14.00;12.60;;;;;12.27;74.89;99748.81;5108805;28;8941;-76
2023/09/04 05:06:20;;;;;;;;;16.20;16.20;;;;;12.05;75.80;99744.97;5110060;28;8879;-74
2023/09/04 05:08:50;;;;;;;;;18.80;15.80;;;;;12.22;75.26;99750.72;5125703;27;8845;-75
2023/09/04 05:11:19;;;;;;;;;15.40;15.20;;;;;12.22;75.37;99742.81;5108573;28;8849;-75
2023/09/04 05:13:49;;;;;;;;;14.00;14.00;;;;;12.51;73.58;99742.06;5116487;27;8952;-75
2023/09/04 05:16:17;;;;;;;;;16.00;15.00;;;;;12.64;73.15;99742.63;5087869;28;8860;-75
2023/09/04 05:18:47;;;;;;;;;14.80;14.00;;;;;12.22;74.64;99739.28;5102012;28;8837;-73
2023/09/04 05:21:17;;;;;;;;;17.40;16.60;;;;;12.54;73.17;99751.66;5101926;28;9563;-75
2023/09/04 05:23:47;;;;;;;;;17.60;17.40;;;;;12.65;73.13;99759.31;5087900;28;8855;-73
2023/09/04 05:26:16;;;;;;;;;13.20;12.00;;;;;12.97;71.09;99744.41;5088477;28;8924;-72
2023/09/04 05:28:45;;;;;;;;;18.20;17.00;;;;;12.73;71.93;99752.94;5089271;28;8848;-75
2023/09/04 05:31:14;;;;;;;;;18.00;17.00;;;;;13.19;69.71;99742.03;5089286;28;8978;-73
2023/09/04 05:33:43;;;;;;;;;16.00;15.80;;;;;12.88;71.33;99740.25;5105046;28;8840;-74
2023/09/04 05:36:11;;;;;;;;;21.00;17.60;;;;;13.18;70.33;99742.94;5100214;28;8936;-73
2023/09/04 05:38:42;;;;;;;;;13.80;13.80;;;;;13.62;68.60;99739.00;5096688;28;8860;-76
2023/09/04 05:41:10;;;;;;;;;17.60;15.60;;;;;13.23;69.64;99755.09;5090690;27;8865;-76
2023/09/04 05:43:39;;;;;;;;;17.20;16.20;;;;;13.15;70.17;99756.22;5094473;28;8825;-76
2023/09/04 05:46:08;;;;;;;;;20.00;18.20;;;;;13.47;68.91;99755.31;5108913;28;8865;-75
2023/09/04 05:48:37;;;;;;;;;18.00;16.20;;;;;13.36;68.75;99752.13;5102202;28;8829;-72
2023/09/04 05:51:06;;;;;;;;;16.40;15.40;;;;;13.61;67.71;99747.81;5095240;28;8837;-74
2023/09/04 05:53:35;;;;;;;;;13.00;11.80;;;;;13.56;67.17;99746.22;5108301;28;8848;-75
2023/09/04 05:56:10;;;;;;;;;16.60;15.20;;;;;13.34;68.09;99749.53;5094592;28;8987;-74
2023/09/04 05:58:45;;;;;;;;;15.40;13.80;;;;;13.15;69.05;99754.47;5108723;28;8849;-75
2023/09/04 06:01:15;;;;;;;;;15.20;14.20;;;;;13.30;68.49;99767.22;5101422;28;8869;-75
2023/09/04 06:03:46;;;;;;;;;17.20;15.80;;;;;13.51;67.72;99759.59;5106764;28;8947;-75
2023/09/04 06:06:15;;;;;;;;;13.60;13.60;;;;;13.29;69.19;99754.06;5091463;28;8833;-73
2023/09/04 06:08:44;;;;;;;;;13.80;13.80;;;;;13.81;67.41;99756.94;5108664;28;8845;-83
2023/09/04 06:11:14;;;;;;;;;18.60;16.60;;;;;13.94;66.51;99760.06;5109078;28;9011;-81
2023/09/04 06:13:44;;;;;;;;;17.60;15.60;;;;;14.34;65.44;99753.50;5119539;28;8864;-83
2023/09/04 06:16:13;;;;;;;;;17.20;15.80;;;;;14.68;63.98;99751.44;5119772;28;8841;-84
2023/09/04 06:18:42;;;;;;;;;18.60;18.20;;;;;14.50;64.35;99753.84;5089896;28;8852;-83
2023/09/04 06:21:11;;;;;;;;;16.40;16.00;;;;;14.45;64.89;99744.31;5108590;28;8904;-82
2023/09/04 06:23:42;;;;;;;;;15.20;15.00;;;;;14.80;63.42;99747.53;5073766;28;8953;-84
2023/09/04 06:26:11;;;;;;;;;18.00;17.20;;;;;14.84;62.98;99740.34;5108493;28;8853;-82
2023/09/04 06:28:41;;;;;;;;;17.20;16.00;;;;;14.96;62.29;99736.38;5111694;28;8849;-84
2023/09/04 06:31:10;;;;;;;;;17.60;16.40;;;;;15.14;61.65;99741.03;5110229;28;8857;-83
2023/09/04 06:33:39;;;;;;;;;16.00;15.00;;;;;15.48;60.89;99734.47;5111470;28;8987;-83
2023/09/04 06:36:08;;;;;;;;;17.00;15.20;;;;;15.50;60.25;99745.00;5100831;28;9625;-81
2023/09/04 06:38:37;;;;;;;;;12.00;11.40;;;;;15.37;60.32;99732.22;5090697;28;8868;-84
2023/09/04 06:41:05;;;;;;;;;13.40;10.40;;;;;15.39;60.34;99730.38;5088245;28;8865;-81
2023/09/04 06:43:34;;;;;;;;;20.00;15.80;;;;;14.93;61.59;99742.66;5107760;28;8871;-82
2023/09/04 06:46:04;;;;;;;;;20.40;16.80;;;;;14.21;64.16;99731.91;5107572;28;8910;-84
2023/09/04 06:48:33;;;;;;;;;14.00;14.00;;;;;14.36;64.26;99749.91;5104450;28;8860;-84
2023/09/04 06:51:02;;;;;;;;;18.20;16.00;;;;;14.27;64.10;99740.47;5107310;28;8930;-82
2023/09/04 06:53:32;;;;;;;;;16.40;15.80;;;;;13.62;66.59;99738.13;5092156;28;9613;-84
2023/09/04 06:56:00;;;;;;;;;15.00;15.00;;;;;13.68;66.34;99740.59;5087750;28;8863;-79
2023/09/04 06:58:30;;;;;;;;;15.80;15.80;;;;;13.58;67.31;99747.03;5101714;28;8859;-81
2023/09/04 07:01:04;;;;;;;;;15.80;14.80;;;;;13.88;66.85;99734.69;5089400;28;8859;-80
2023/09/04 07:03:33;;;;;;;;;16.40;16.40;;;;;13.93;66.09;99739.84;5105737;28;8896;-80
2023/09/04 07:06:02;;;;;;;;;16.60;16.60;;;;;13.82;66.26;99737.53;5109858;28;8930;-78
2023/09/04 07:08:31;;;;;;;;;17.00;16.20;;;;;13.65;67.28;99740.66;5114263;28;8844;-80
2023/09/04 07:11:00;;;;;;;;;14.80;14.80;;;;;14.37;64.91;99746.31;5078319;28;9550;-77
2023/09/04 07:13:29;;;;;;;;;17.20;16.60;;;;;14.84;63.15;99764.16;5106992;28;8856;-79
2023/09/04 07:15:57;;;;;;;;;15.80;15.80;;;;;15.25;62.32;99759.19;5107511;28;8876;-79
2023/09/04 07:18:28;;;;;;;;;16.60;16.60;;;;;15.73;60.59;99763.56;5106530;28;8841;-80
2023/09/04 07:20:57;;;;;;;;;15.80;15.80;;;;;16.05;59.23;99755.25;5107782;28;9007;-78
2023/09/04 07:23:27;;;;;;;;;13.00;12.60;;;;;16.45;58.21;99751.00;5107617;28;9586;-78
2023/09/04 07:25:57;;;;;;;;;19.80;16.20;;;;;16.21;58.71;99757.22;5107723;28;8975;-79
2023/09/04 07:28:26;;;;;;;;;16.20;14.60;;;;;16.20;57.94;99751.97;5107777;28;8845;-80
2023/09/04 07:31:09;;;;;;;;;14.60;14.60;;;;;16.22;57.70;99750.97;5101111;28;8881;-79
2023/09/04 07:33:40;;;;;;;;;14.80;14.20;;;;;16.08;58.66;99749.81;5091523;28;8886;-77
2023/09/04 07:36:08;;;;;;;;;13.40;13.00;;;;;16.47;57.63;99755.28;5105927;28;8857;-77
2023/09/04 07:38:37;;;;;;;;;16.80;16.20;;;;;16.22;58.10;99758.94;5092052;28;8848;-79
2023/09/04 07:41:06;;;;;;;;;14.60;14.40;;;;;16.75;56.88;99747.03;5088069;28;8880;-78
2023/09/04 07:43:35;;;;;;;;;18.60;16.00;;;;;16.07;58.65;99748.09;5105704;28;8841;-79
2023/09/04 07:46:04;;;;;;;;;15.40;15.00;;;;;16.30;57.54;99760.41;5107303;28;8873;-79
2023/09/04 07:48:34;;;;;;;;;14.60;14.60;;;;;16.77;56.48;99752.28;5093529;28;8881;-78
2023/09/04 07:51:06;;;;;;;;;12.00;9.80;;;;;15.84;58.93;99757.84;5107668;28;8877;-80
2023/09/04 07:53:55;;;;;;;;;21.60;17.80;;;;;15.80;59.27;99754.44;5107482;28;8864;-78
2023/09/04 07:56:24;;;;;;;;;17.60;16.40;;;;;15.28;61.20;99734.34;5092850;28;8861;-77
2023/09/04 07:58:54;;;;;;;;;17.20;16.60;;;;;15.23;61.08;99751.28;5110821;28;8860;-78
2023/09/04 08:01:23;;;;;;;;;16.40;16.40;;;;;15.65;59.55;99744.44;5114925;28;8893;-80
2023/09/04 08:03:52;;;;;;;;;17.00;15.20;;;;;16.15;58.39;99753.94;5117815;28;8865;-81
2023/09/04 08:06:22;;;;;;;;;16.00;15.60;;;;;16.60;56.79;99747.69;5112792;28;8863;-78
2023/09/04 08:08:52;;;;;;;;;18.00;18.00;;;;;16.58;56.60;99757.50;5117394;28;8849;-79
2023/09/04 08:11:20;;;;;;;;;17.40;17.00;;;;;16.89;55.67;99742.91;5111301;28;8877;-78
2023/09/04 08:13:49;;;;;;;;;17.20;17.20;;;;;16.96;54.56;99757.63;5097814;28;9627;-77
2023/09/04 08:16:18;;;;;;;;;17.00;15.40;;;;;17.25;54.44;99756.38;5109484;28;8971;-80
2023/09/04 08:18:47;;;;;;;;;19.00;16.20;;;;;17.61;53.75;99758.28;5104399;28;8832;-78
2023/09/04 08:21:16;;;;;;;;;17.40;16.60;;;;;17.71;53.15;99756.03;5070927;28;8848;-78
2023/09/04 08:23:47;;;;;;;;;17.60;16.40;;;;;16.98;54.84;99761.09;5104736;28;8833;-79
2023/09/04 08:26:16;;;;;;;;;17.40;16.80;;;;;16.50;56.81;99762.28;5110689;28;8903;-78
2023/09/04 08:28:45;;;;;;;;;15.80;15.80;;;;;16.79;56.52;99759.22;5087736;28;8844;-75
2023/09/04 08:31:14;;;;;;;;;16.60;15.80;;;;;17.36;55.01;99754.09;5106789;28;8860;-77
2023/09/04 08:33:43;;;;;;;;;17.80;16.40;;;;;17.65;53.67;99756.34;5110722;28;8857;-77
2023/09/04 08:36:11;;;;;;;;;15.20;13.80;;;;;17.97;52.85;99753.00;5096229;28;8863;-75
2023/09/04 08:38:40;;;;;;;;;20.40;18.60;;;;;17.21;54.55;99760.06;5105453;28;8898;-76
2023/09/04 08:41:16;;;;;;;;;17.40;16.60;;;;;16.86;55.45;99753.69;5091579;28;8956;-76
2023/09/04 08:43:47;;;;;;;;;16.80;15.80;;;;;17.47;54.24;99737.63;5107664;28;8934;-75
2023/09/04 08:46:17;;;;;;;;;16.60;15.40;;;;;17.92;52.13;99746.16;5110586;28;8967;-76
2023/09/04 08:48:49;;;;;;;;;18.00;14.80;;;;;18.15;51.85;99755.72;5108882;28;8844;-77
2023/09/04 08:51:18;;;;;;;;;16.60;15.40;;;;;18.27;51.45;99740.94;5110611;28;8856;-77
2023/09/04 08:53:49;;;;;;;;;17.80;16.00;;;;;18.38;51.46;99735.09;5104917;28;8879;-77
2023/09/04 08:56:20;;;;;;;;;17.00;17.00;;;;;18.43;51.28;99733.91;5101147;28;8949;-77
2023/09/04 08:58:49;;;;;;;;;21.40;20.20;;;;;18.57;50.76;99743.84;5091111;28;8837;-76
2023/09/04 09:01:20;;;;;;;;;14.00;13.00;;;;;18.59;50.13;99742.00;5111551;28;8872;-78
2023/09/04 09:03:49;;;;;;;;;19.80;18.80;;;;;18.34;50.48;99731.72;5106096;28;8928;-76
2023/09/04 09:06:18;;;;;;;;;15.40;15.40;;;;;18.55;50.32;99720.00;5100563;28;8857;-75
2023/09/04 09:08:49;;;;;;;;;12.80;12.80;;;;;18.64;50.25;99728.44;5109615;28;8841;-75
2023/09/04 09:11:19;;;;;;;;;18.20;17.80;;;;;18.71;49.90;99732.50;5109665;28;8849;-76
2023/09/04 09:13:48;;;;;;;;;18.20;17.20;;;;;18.70;50.44;99730.78;5111161;27;9019;-74
2023/09/04 09:16:20;;;;;;;;;16.80;16.40;;;;;18.84;49.76;99722.97;5111635;27;8845;-76
2023/09/04 09:18:50;;;;;;;;;14.20;12.60;;;;;18.96;49.15;99717.94;5109253;28;8888;-76
2023/09/04 09:21:26;;;;;;;;;17.40;17.00;;;;;18.82;49.15;99726.63;5095331;28;8869;-76
2023/09/04 09:24:14;;;;;;;;;17.60;17.20;;;;;17.96;51.26;99735.28;5109673;28;8842;-76
2023/09/04 09:26:46;;;;;;;;;16.80;15.80;;;;;18.54;50.22;99730.72;5094928;28;8876;-75
2023/09/04 09:29:16;;;;;;;;;14.40;14.40;;;;;18.64;49.87;99720.44;5108856;28;8926;-76
2023/09/04 09:31:46;;;;;;;;;17.20;17.20;;;;;18.96;49.13;99721.47;5109282;28;8888;-76
2023/09/04 09:34:16;;;;;;;;;14.40;14.40;;;;;18.75;48.78;99723.41;5107968;28;8846;-75
2023/09/04 09:36:45;;;;;;;;;14.80;14.80;;;;;18.99;48.22;99715.97;5109234;28;9652;-77
2023/09/04 09:39:15;;;;;;;;;14.40;13.80;;;;;19.01;49.10;99721.22;5102916;28;8841;-74
2023/09/04 09:41:46;;;;;;;;;12.20;12.20;;;;;19.13;48.21;99721.41;5094217;28;8845;-75
2023/09/04 09:44:15;;;;;;;;;12.60;12.00;;;;;19.39;47.36;99712.97;5095596;28;8830;-77
2023/09/04 09:46:43;;;;;;;;;14.40;14.40;;;;;19.50;47.47;99708.75;5041890;28;8967;-76
2023/09/04 09:49:12;;;;;;;;;13.60;13.60;;;;;19.50;47.43;99727.41;5045577;28;9600;-77
2023/09/04 09:51:41;;;;;;;;;14.20;14.20;;;;;19.72;46.92;99720.91;5032104;28;8874;-76
2023/09/04 09:54:12;;;;;;;;;15.60;15.60;;;;;19.68;47.00;99719.34;5009193;28;8868;-77
2023/09/04 09:56:43;;;;;;;;;13.40;13.00;;;;;19.68;46.95;99725.53;5041936;28;8872;-78
2023/09/04 09:59:14;;;;;;;;;17.20;16.20;;;;;19.72;46.79;99718.22;5035291;28;9574;-77
2023/09/04 10:01:43;;;;;;;;;14.20;14.00;;;;;19.62;46.90;99711.72;5045472;28;8866;-77
2023/09/04 10:04:15;;;;;;;;;15.20;15.20;;;;;19.74;47.29;99716.34;5045509;28;8834;-76
2023/09/04 10:06:46;;;;;;;;;16.40;15.40;;;;;19.84;47.34;99709.53;5031654;28;8947;-75
2023/09/04 10:09:22;;;;;;;;;14.00;14.00;;;;;19.94;46.92;99711.69;5012281;28;9683;-75
2023/09/04 10:12:00;;;;;;;;;14.20;14.20;;;;;19.93;46.10;99701.94;5028908;28;8996;-77
2023/09/04 10:14:36;;;;;;;;;13.00;12.40;;;;;20.05;45.99;99698.59;5040451;28;8841;-79
2023/09/04 10:17:08;;;;;;;;;13.60;12.40;;;;;20.24;45.96;99698.41;5063402;28;8851;-75
2023/09/04 10:19:42;;;;;;;;;15.40;13.80;;;;;20.51;45.84;99689.69;5103028;28;8881;-77
2023/09/04 10:22:17;;;;;;;;;15.20;13.40;;;;;20.29;45.33;99690.97;5108191;28;8868;-76
2023/09/04 10:24:52;;;;;;;;;10.80;10.80;;;;;20.42;45.27;99691.94;5108133;28;8945;-77
2023/09/04 10:27:25;;;;;;;;;12.00;12.00;;;;;20.51;44.71;99689.69;5109734;28;8864;-77
2023/09/04 10:30:03;;;;;;;;;11.40;11.40;;;;;20.79;44.81;99695.09;5109309;28;9629;-74
2023/09/04 10:32:33;;;;;;;;;11.00;11.00;;;;;20.75;44.31;99693.56;5105395;28;9197;-77
2023/09/04 10:35:02;;;;;;;;;11.00;11.00;;;;;20.66;43.94;99700.31;5108467;28;9621;-77
2023/09/04 10:37:31;;;;;;;;;11.20;11.20;;;;;20.99;43.69;99690.34;5091605;28;8984;-76
2023/09/04 10:40:02;;;;;;;;;10.00;9.40;;;;;20.79;43.20;99680.88;5101565;28;8858;-79
2023/09/04 10:42:33;;;;;;;;;11.00;10.80;;;;;20.80;43.61;99680.78;5099014;28;8983;-76
2023/09/04 10:45:13;;;;;;;;;9.60;9.60;;;;;20.96;42.57;99675.38;5108007;28;8818;-77
2023/09/04 10:47:47;;;;;;;;;12.00;10.40;;;;;21.16;42.36;99684.81;5124022;28;8861;-77
2023/09/04 10:50:30;;;;;;;;;9.20;8.40;;;;;21.40;41.71;99669.00;5108036;28;8926;-80
2023/09/04 10:53:00;;;;;;;;;12.00;11.20;;;;;21.29;42.16;99668.84;5106087;28;8960;-76
2023/09/04 10:55:30;;;;;;;;;10.00;9.80;;;;;21.08;41.84;99667.53;5107604;28;8845;-77
2023/09/04 10:58:00;;;;;;;;;11.20;9.80;;;;;21.11;42.28;99676.22;5105971;28;8873;-77
2023/09/04 11:00:33;;;;;;;;;9.40;9.40;;;;;21.59;41.73;99671.38;5106413;28;8841;-75
2023/09/04 11:03:18;;;;;;;;;12.80;12.20;;;;;21.61;41.30;99655.25;5123237;28;9012;-77
2023/09/04 11:06:09;;;;;;;;;10.80;7.80;;;;;21.55;41.34;99651.13;5106973;27;8861;-76
2023/09/04 11:08:49;;;;;;;;;7.60;7.60;;;;;21.71;41.38;99658.16;5105411;28;9676;-76
2023/09/04 11:11:24;;;;;;;;;10.60;9.40;;;;;22.14;40.61;99666.00;5094188;28;9650;-77
2023/09/04 11:13:58;;;;;;;;;12.20;12.20;;;;;22.31;40.10;99657.72;5067009;28;8901;-77
2023/09/04 11:16:33;;;;;;;;;9.60;9.60;;;;;22.61;39.94;99668.13;5096950;28;9618;-75
2023/09/04 11:19:05;;;;;;;;;9.80;9.80;;;;;22.71;39.14;99657.66;5107662;28;8899;-76
2023/09/04 11:21:36;;;;;;;;;11.20;10.60;;;;;22.44;39.53;99654.22;5090875;28;8949;-76
2023/09/04 11:24:05;;;;;;;;;12.00;10.40;;;;;22.06;39.51;99637.09;5109769;28;8910;-80
2023/09/04 11:26:35;;;;;;;;;9.00;9.00;;;;;22.02;39.97;99644.47;5105006;28;8865;-80
2023/09/04 11:29:05;;;;;;;;;8.60;8.60;;;;;22.36;39.94;99644.88;5109998;28;8922;-79
2023/09/04 11:31:38;;;;;;;;;8.80;8.40;;;;;22.44;39.18;99648.84;5109363;28;9109;-80
2023/09/04 11:34:08;;;;;;;;;8.80;8.20;;;;;22.43;39.14;99648.00;5103372;28;8933;-84
2023/09/04 11:36:38;;;;;;;;;8.40;8.40;;;;;22.41;38.97;99650.78;5059189;28;9555;-79
2023/09/04 11:39:09;;;;;;;;;8.00;8.00;;;;;22.79;38.66;99655.28;5092378;28;9637;-80
2023/09/04 11:41:39;;;;;;;;;7.80;7.80;;;;;22.92;38.02;99649.09;5111858;28;8999;-80
2023/09/04 11:44:08;;;;;;;;;9.20;9.20;;;;;22.90;37.89;99648.34;5111192;28;8857;-81
2023/09/04 11:46:39;;;;;;;;;9.00;9.00;;;;;23.25;37.49;99632.41;5127307;27;8952;-80